Weather observations for the past three days for
Pocatello, Pocatello Regional Airport
Imperial (Metric)
Date Time (mdt) Wind (mph) Vis. (mi.) Weather Sky Cond. Temperature (ºF) Relative Humidity Wind Chill (°F) Heat Index (°F) Pressure Precipitation (in)
Air Dwpt 6 hour altimeter (in) sea level (mb) 1 hr 3 hr 6 hr
Max. Min.
04 16:53 Calm 10.00 A Few Clouds FEW080 75 25 15% 75 29.69 1002.6
04 16:52 SW 8 10.00 A Few Clouds FEW080 78.8 26.6 15% 78 29.71 0.0
04 15:53 Vrbl 6 10.00 A Few Clouds FEW080 75.9 27 16% 76 29.72 1003.5
04 14:53 NW 12 10.00 Fair CLR 73.9 28.9 19% 29.74 1004.5
04 13:53 W 12 10.00 A Few Clouds FEW110 73.9 28.9 19% 29.76 1004.9
04 12:53 SW 9 10.00 Fair CLR 71.1 32 24% 29.79 1005.5
04 11:53 W 10 G 16 10.00 Fair CLR 66.9 33.1 66.9 33.1 29% 29.8 1006.4
04 10:53 W 8 10.00 Fair CLR 64 36 35% 29.82 1006.2
04 09:53 SW 8 10.00 Fair CLR 60.1 33.1 36% 29.82 1006.7
04 08:53 SW 8 10.00 Fair CLR 54 28.9 38% 29.83 1007.3
04 07:53 Calm 10.00 Fair CLR 46 30.9 56% 29.83 1007.0
04 06:53 Calm 10.00 Fair CLR 37.9 28.9 70% 29.82 1006.8
04 05:53 NW 5 10.00 Fair CLR 36 28 46.9 34 73% 33 29.81 1006.7
04 04:53 Calm 10.00 Fair CLR 37.9 28.9 70% 29.81 1006.5
04 03:53 Vrbl 3 10.00 Fair CLR 37.9 30 73% 29.81 1006.7
04 02:53 Calm 10.00 Fair CLR 37.9 28 68% 29.8 1006.5
04 01:53 W 3 10.00 Fair CLR 42.1 28 58% 29.8 1006.2
04 00:53 Calm 10.00 Fair CLR 46 28.9 51% 29.81 1006.1
03 23:53 NW 8 10.00 Fair CLR 46.9 27 75.9 46.9 46% 44 29.81 1006.5
03 22:53 Calm 10.00 Fair CLR 57 28 33% 29.82 1006.1
03 21:53 S 9 10.00 Fair CLR 57 23 27% 29.81 1006.3
03 20:53 SW 8 10.00 Fair CLR 59 27 29% 29.81 1006.5
03 19:53 S 6 10.00 Fair CLR 70 25 18% 29.8 1006.1
03 18:53 W 5 10.00 Fair CLR 75 19.9 12% 75 29.82 1006.8
03 17:53 Vrbl 5 10.00 Fair CLR 75.9 21 77 69.1 13% 76 29.84 1007.5
03 16:53 Vrbl 7 10.00 A Few Clouds FEW070 75.9 21 13% 76 29.86 1008.4
03 15:53 W 8 10.00 Partly Cloudy SCT050 75.9 21 13% 76 29.89 1009.2
03 14:53 NW 9 10.00 Fair CLR 73.9 18 12% 29.92 1010.3
03 13:53 W 9 10.00 Fair CLR 73.9 17.1 11% 29.93 1010.8
03 12:53 NW 9 10.00 Fair CLR 72 26.1 18% 29.96 1011.0
03 11:53 W 6 10.00 Fair CLR 69.1 21.9 69.1 36 17% 29.98 1011.2
03 10:53 Calm 10.00 Fair CLR 64.9 26.1 23% 30 1012.4
03 09:53 NW 7 10.00 Fair CLR 61 32 34% 30.01 1013.0
03 08:53 Calm 10.00 Fair CLR 55 30 38% 30.02 1013.7
03 07:53 Calm 10.00 Fair CLR 48 28.9 48% 30.02 1013.8
03 06:53 E 7 10.00 Fair CLR 42.1 25 51% 38 30.01 1013.7
03 05:53 E 8 10.00 Fair CLR 39 26.1 61 34 60% 34 30 1013.3
03 04:53 N 6 10.00 Fair CLR 37 24.1 59% 33 30 1013.5
03 03:53 N 7 10.00 Fair CLR 39 23 53% 35 29.99 1013.1
03 02:53 N 6 10.00 Fair CLR 39.9 23 51% 36 29.99 1012.8
03 01:53 N 9 10.00 Fair CLR 42.1 21 43% 37 29.99 1012.8
03 00:53 Calm 10.00 Fair CLR 51.1 17.1 26% 29.99 1012.1
02 23:53 SE 6 10.00 Fair CLR 60.1 16 73 55.9 18% 29.99 1011.8
02 22:53 E 6 10.00 Fair CLR 57 19.9 24% 29.99 1012.1
02 21:53 S 10 10.00 Fair CLR 57.9 18 21% 29.99 1012.8
02 20:53 S 13 10.00 Fair CLR 60.1 19.9 21% 29.98 1012.6
02 19:53 S 13 10.00 Fair CLR 66 21.9 19% 29.98 1012.9
02 18:53 S 8 10.00 Fair CLR 70 19 14% 29.98 1013.7
02 17:53 Vrbl 5 10.00 Fair CLR 73 21 75 66.9 14% 29.99 1013.7
02 16:53 W 8 10.00 Fair CLR 73 23 15% 30.01 1013.7
02 15:53 S 7 10.00 Fair CLR 73 17.1 12% 30.03 1014.4
02 14:53 N 14 10.00 Fair CLR 73 19.9 13% 30.06 1015.4
02 13:53 NW 12 10.00 Fair CLR 71.1 23 16% 30.07 1016.4
02 12:53 Vrbl 3 10.00 Fair CLR 70 25 18% 30.1 1017.1
02 11:53 NW 9 G 17 10.00 Fair CLR 68 30.9 68 30.9 25% 30.12 1017.6
02 10:53 Vrbl 5 10.00 Fair CLR 64 30 28% 30.13 1018.2
02 09:53 NW 7 10.00 Fair CLR 57 35.1 44% 30.14 1018.8
02 08:53 NW 8 10.00 Fair CLR 53.1 30.9 43% 30.14 1018.8
02 07:53 E 6 10.00 Fair CLR 44.1 28.9 55% 41 30.13 1018.6
02 06:53 S 5 10.00 Fair CLR 32 25 75% 28 30.13 1019.2
02 05:53 N 3 10.00 Fair CLR 33.1 26.1 45 30.9 75% 30.13 1019.0
02 04:53 E 6 10.00 Fair CLR 39 26.1 60% 35 30.13 1018.6
02 03:53 E 7 10.00 Fair CLR 37.9 26.1 62% 33 30.13 1018.6
02 02:53 Calm 10.00 Fair CLR 39 27 62% 30.13 1018.7
02 01:53 N 6 10.00 Fair CLR 36 25 64% 32 30.13 1018.9
02 00:53 N 7 10.00 Fair CLR 37.9 21 51% 33 30.12 1018.6
01 23:53 Calm 10.00 Fair CLR 42.1 27 66 42.1 55% 30.11 1018.2
01 22:53 E 8 10.00 Fair CLR 44.1 24.1 45% 40 30.12 1018.3
01 21:53 E 7 10.00 Fair CLR 48.9 21.9 35% 46 30.11 1018.2
01 20:53 S 7 10.00 Fair CLR 53.1 21 28% 30.1 1018.0
01 19:53 W 5 10.00 Fair CLR 62.1 19.9 20% 30.09 1017.5
01 18:53 NW 6 10.00 Fair CLR 64.9 17.1 16% 30.1 1018.5
01 17:53 NW 9 10.00 Fair CLR 66 14 66.9 60.1 13% 30.1 1018.6
Date Time (mdt) Wind (mph) Vis. (mi.) Weather Sky Cond. Air Dwpt Max. Min. Relative Humidity Wind Chill (°F) Heat Index (°F) altimeter (in) sea level (mb) 1 hr 3 hr 6 hr
6 hour
Temperature (ºF) Pressure Precipitation (in)